sensor_id;sensor_type;location;lat;lon;timestamp;temperature;humidity
2861;DHT22;1438;50.922;6.704;2022-12-18T00:01:36;-6.20;99.90
2861;DHT22;1438;50.922;6.704;2022-12-18T00:04:07;-6.20;99.90
2861;DHT22;1438;50.922;6.704;2022-12-18T00:06:34;-6.20;99.90
2861;DHT22;1438;50.922;6.704;2022-12-18T00:09:01;-6.20;99.90
2861;DHT22;1438;50.922;6.704;2022-12-18T00:11:29;-6.20;99.90
2861;DHT22;1438;50.922;6.704;2022-12-18T00:13:56;-6.30;99.90
2861;DHT22;1438;50.922;6.704;2022-12-18T00:16:24;-6.30;99.90
2861;DHT22;1438;50.922;6.704;2022-12-18T00:18:52;-6.30;99.90
2861;DHT22;1438;50.922;6.704;2022-12-18T00:21:19;-6.30;99.90
2861;DHT22;1438;50.922;6.704;2022-12-18T00:23:46;-6.30;99.90
2861;DHT22;1438;50.922;6.704;2022-12-18T00:26:15;-6.30;99.90
2861;DHT22;1438;50.922;6.704;2022-12-18T00:28:41;-6.30;99.90
2861;DHT22;1438;50.922;6.704;2022-12-18T00:31:09;-6.30;99.90
2861;DHT22;1438;50.922;6.704;2022-12-18T00:33:36;-6.30;99.90
2861;DHT22;1438;50.922;6.704;2022-12-18T00:36:03;-6.30;99.90
2861;DHT22;1438;50.922;6.704;2022-12-18T00:38:29;-6.30;99.90
2861;DHT22;1438;50.922;6.704;2022-12-18T00:40:55;-6.30;99.90
2861;DHT22;1438;50.922;6.704;2022-12-18T00:43:20;-6.30;99.90
2861;DHT22;1438;50.922;6.704;2022-12-18T00:45:46;-6.30;99.90
2861;DHT22;1438;50.922;6.704;2022-12-18T00:48:12;-6.30;99.90
2861;DHT22;1438;50.922;6.704;2022-12-18T00:50:37;-6.30;99.90
2861;DHT22;1438;50.922;6.704;2022-12-18T00:53:03;-6.30;99.90
2861;DHT22;1438;50.922;6.704;2022-12-18T00:55:29;-6.30;99.90
2861;DHT22;1438;50.922;6.704;2022-12-18T00:57:55;-6.30;99.90
2861;DHT22;1438;50.922;6.704;2022-12-18T01:00:20;-6.30;99.90
2861;DHT22;1438;50.922;6.704;2022-12-18T01:02:46;-6.30;99.90
2861;DHT22;1438;50.922;6.704;2022-12-18T01:05:12;-6.30;99.90
2861;DHT22;1438;50.922;6.704;2022-12-18T01:07:38;-6.30;99.90
2861;DHT22;1438;50.922;6.704;2022-12-18T01:10:06;-6.30;99.90
2861;DHT22;1438;50.922;6.704;2022-12-18T01:12:32;-6.30;99.90
2861;DHT22;1438;50.922;6.704;2022-12-18T01:14:58;-6.30;99.90
2861;DHT22;1438;50.922;6.704;2022-12-18T01:17:23;-6.30;99.90
2861;DHT22;1438;50.922;6.704;2022-12-18T01:19:49;-6.40;99.90
2861;DHT22;1438;50.922;6.704;2022-12-18T01:22:14;-6.40;99.90
2861;DHT22;1438;50.922;6.704;2022-12-18T01:24:40;-6.40;99.90
2861;DHT22;1438;50.922;6.704;2022-12-18T01:27:06;-6.40;99.90
2861;DHT22;1438;50.922;6.704;2022-12-18T01:29:32;-6.40;99.90
2861;DHT22;1438;50.922;6.704;2022-12-18T01:31:57;-6.40;99.90
2861;DHT22;1438;50.922;6.704;2022-12-18T01:34:24;-6.40;99.90
2861;DHT22;1438;50.922;6.704;2022-12-18T01:36:50;-6.40;99.90
2861;DHT22;1438;50.922;6.704;2022-12-18T01:39:17;-6.40;99.90
2861;DHT22;1438;50.922;6.704;2022-12-18T01:41:43;-6.30;99.90
2861;DHT22;1438;50.922;6.704;2022-12-18T01:47:19;-6.30;99.90
2861;DHT22;1438;50.922;6.704;2022-12-18T01:49:45;-6.30;99.90
2861;DHT22;1438;50.922;6.704;2022-12-18T01:52:11;-6.40;99.90
2861;DHT22;1438;50.922;6.704;2022-12-18T01:54:37;-6.30;99.90
2861;DHT22;1438;50.922;6.704;2022-12-18T01:57:02;-6.40;99.90
2861;DHT22;1438;50.922;6.704;2022-12-18T01:59:31;-6.40;99.90
2861;DHT22;1438;50.922;6.704;2022-12-18T02:01:58;-6.40;99.90
2861;DHT22;1438;50.922;6.704;2022-12-18T02:04:25;-6.40;99.90
2861;DHT22;1438;50.922;6.704;2022-12-18T02:07:37;-6.40;99.90
2861;DHT22;1438;50.922;6.704;2022-12-18T02:12:48;-6.50;99.90
2861;DHT22;1438;50.922;6.704;2022-12-18T02:15:22;-6.50;99.90
2861;DHT22;1438;50.922;6.704;2022-12-18T02:17:59;-6.50;99.90
2861;DHT22;1438;50.922;6.704;2022-12-18T02:20:34;-6.50;99.90
2861;DHT22;1438;50.922;6.704;2022-12-18T02:28:26;-6.40;99.90
2861;DHT22;1438;50.922;6.704;2022-12-18T02:30:54;-6.40;99.90
2861;DHT22;1438;50.922;6.704;2022-12-18T02:33:22;-6.40;99.90
2861;DHT22;1438;50.922;6.704;2022-12-18T02:35:49;-6.40;99.90
2861;DHT22;1438;50.922;6.704;2022-12-18T02:38:16;-6.40;99.90
2861;DHT22;1438;50.922;6.704;2022-12-18T02:40:43;-6.40;99.90
2861;DHT22;1438;50.922;6.704;2022-12-18T02:43:11;-6.40;99.90
2861;DHT22;1438;50.922;6.704;2022-12-18T02:45:47;-6.40;99.90
2861;DHT22;1438;50.922;6.704;2022-12-18T02:48:13;-6.30;99.90
2861;DHT22;1438;50.922;6.704;2022-12-18T02:50:57;-6.30;99.90
2861;DHT22;1438;50.922;6.704;2022-12-18T02:56:30;-6.30;99.90
2861;DHT22;1438;50.922;6.704;2022-12-18T02:59:08;-6.30;99.90
2861;DHT22;1438;50.922;6.704;2022-12-18T03:01:42;-6.30;99.90
2861;DHT22;1438;50.922;6.704;2022-12-18T03:04:14;-6.30;99.90
2861;DHT22;1438;50.922;6.704;2022-12-18T03:06:45;-6.30;99.90
2861;DHT22;1438;50.922;6.704;2022-12-18T03:09:16;-6.30;99.90
2861;DHT22;1438;50.922;6.704;2022-12-18T03:11:48;-6.30;99.90
2861;DHT22;1438;50.922;6.704;2022-12-18T03:14:34;-6.30;99.90
2861;DHT22;1438;50.922;6.704;2022-12-18T03:17:05;-6.30;99.90
2861;DHT22;1438;50.922;6.704;2022-12-18T03:19:34;-6.30;99.90
2861;DHT22;1438;50.922;6.704;2022-12-18T03:22:04;-6.20;99.90
2861;DHT22;1438;50.922;6.704;2022-12-18T03:24:31;-6.20;99.90
2861;DHT22;1438;50.922;6.704;2022-12-18T03:27:01;-6.20;99.90
2861;DHT22;1438;50.922;6.704;2022-12-18T03:29:37;-6.10;99.90
2861;DHT22;1438;50.922;6.704;2022-12-18T03:32:19;-6.10;99.90
2861;DHT22;1438;50.922;6.704;2022-12-18T03:34:46;-6.10;99.90
2861;DHT22;1438;50.922;6.704;2022-12-18T03:37:13;-6.10;99.90
2861;DHT22;1438;50.922;6.704;2022-12-18T03:39:39;-6.10;99.90
2861;DHT22;1438;50.922;6.704;2022-12-18T03:45:00;-6.20;99.90
2861;DHT22;1438;50.922;6.704;2022-12-18T03:51:05;-6.20;99.90
2861;DHT22;1438;50.922;6.704;2022-12-18T03:53:43;-6.20;99.90
2861;DHT22;1438;50.922;6.704;2022-12-18T03:56:09;-6.20;99.90
2861;DHT22;1438;50.922;6.704;2022-12-18T03:58:38;-6.10;99.90
2861;DHT22;1438;50.922;6.704;2022-12-18T04:01:07;-6.20;99.90
2861;DHT22;1438;50.922;6.704;2022-12-18T04:03:34;-6.20;99.90
2861;DHT22;1438;50.922;6.704;2022-12-18T04:06:02;-6.10;99.90
2861;DHT22;1438;50.922;6.704;2022-12-18T04:08:28;-6.20;99.90
2861;DHT22;1438;50.922;6.704;2022-12-18T04:10:54;-6.20;99.90
2861;DHT22;1438;50.922;6.704;2022-12-18T04:13:24;-6.20;99.90
2861;DHT22;1438;50.922;6.704;2022-12-18T04:15:52;-6.20;99.90
2861;DHT22;1438;50.922;6.704;2022-12-18T04:18:18;-6.20;99.90
2861;DHT22;1438;50.922;6.704;2022-12-18T04:20:44;-6.20;99.90
2861;DHT22;1438;50.922;6.704;2022-12-18T04:23:09;-6.30;99.90
2861;DHT22;1438;50.922;6.704;2022-12-18T04:25:35;-6.20;99.90
2861;DHT22;1438;50.922;6.704;2022-12-18T04:28:00;-6.20;99.90
2861;DHT22;1438;50.922;6.704;2022-12-18T04:30:26;-6.10;99.90
2861;DHT22;1438;50.922;6.704;2022-12-18T04:32:51;-6.20;99.90
2861;DHT22;1438;50.922;6.704;2022-12-18T04:35:17;-6.10;99.90
2861;DHT22;1438;50.922;6.704;2022-12-18T04:37:43;-6.10;99.90
2861;DHT22;1438;50.922;6.704;2022-12-18T04:40:09;-6.00;99.90
2861;DHT22;1438;50.922;6.704;2022-12-18T04:42:34;-6.00;99.90
2861;DHT22;1438;50.922;6.704;2022-12-18T04:45:00;-6.00;99.90
2861;DHT22;1438;50.922;6.704;2022-12-18T04:47:26;-6.00;99.90
2861;DHT22;1438;50.922;6.704;2022-12-18T04:49:51;-5.90;99.90
2861;DHT22;1438;50.922;6.704;2022-12-18T04:52:17;-6.00;99.90
2861;DHT22;1438;50.922;6.704;2022-12-18T04:54:42;-5.90;99.90
2861;DHT22;1438;50.922;6.704;2022-12-18T04:57:08;-5.90;99.90
2861;DHT22;1438;50.922;6.704;2022-12-18T04:59:33;-5.90;99.90
2861;DHT22;1438;50.922;6.704;2022-12-18T05:01:59;-5.80;99.90
2861;DHT22;1438;50.922;6.704;2022-12-18T05:04:24;-5.80;99.90
2861;DHT22;1438;50.922;6.704;2022-12-18T05:06:50;-5.80;99.90
2861;DHT22;1438;50.922;6.704;2022-12-18T05:09:16;-5.90;99.90
2861;DHT22;1438;50.922;6.704;2022-12-18T05:11:41;-5.90;99.90
2861;DHT22;1438;50.922;6.704;2022-12-18T05:14:07;-5.90;99.90
2861;DHT22;1438;50.922;6.704;2022-12-18T05:16:32;-5.90;99.90
2861;DHT22;1438;50.922;6.704;2022-12-18T05:18:58;-5.80;99.90
2861;DHT22;1438;50.922;6.704;2022-12-18T05:21:25;-5.80;99.90
2861;DHT22;1438;50.922;6.704;2022-12-18T05:23:50;-5.80;99.90
2861;DHT22;1438;50.922;6.704;2022-12-18T05:26:18;-5.80;99.90
2861;DHT22;1438;50.922;6.704;2022-12-18T05:28:44;-5.70;99.90
2861;DHT22;1438;50.922;6.704;2022-12-18T05:31:10;-5.70;99.90
2861;DHT22;1438;50.922;6.704;2022-12-18T05:33:35;-5.70;99.90
2861;DHT22;1438;50.922;6.704;2022-12-18T05:36:03;-5.70;99.90
2861;DHT22;1438;50.922;6.704;2022-12-18T05:38:30;-5.70;99.90
2861;DHT22;1438;50.922;6.704;2022-12-18T05:40:57;-5.70;99.90
2861;DHT22;1438;50.922;6.704;2022-12-18T05:43:23;-5.70;99.90
2861;DHT22;1438;50.922;6.704;2022-12-18T05:45:49;-5.60;99.90
2861;DHT22;1438;50.922;6.704;2022-12-18T05:48:16;-5.60;99.90
2861;DHT22;1438;50.922;6.704;2022-12-18T05:50:42;-5.60;99.90
2861;DHT22;1438;50.922;6.704;2022-12-18T05:53:11;-5.70;99.90
2861;DHT22;1438;50.922;6.704;2022-12-18T05:55:39;-5.70;99.90
2861;DHT22;1438;50.922;6.704;2022-12-18T05:58:06;-5.70;99.90
2861;DHT22;1438;50.922;6.704;2022-12-18T06:00:33;-5.70;99.90
2861;DHT22;1438;50.922;6.704;2022-12-18T06:03:00;-5.70;99.90
2861;DHT22;1438;50.922;6.704;2022-12-18T06:05:26;-5.70;99.90
2861;DHT22;1438;50.922;6.704;2022-12-18T06:07:52;-5.70;99.90
2861;DHT22;1438;50.922;6.704;2022-12-18T06:10:17;-5.80;99.90
2861;DHT22;1438;50.922;6.704;2022-12-18T06:12:43;-5.70;99.90
2861;DHT22;1438;50.922;6.704;2022-12-18T06:15:09;-5.70;99.90
2861;DHT22;1438;50.922;6.704;2022-12-18T06:17:36;-5.70;99.90
2861;DHT22;1438;50.922;6.704;2022-12-18T06:20:02;-5.60;99.90
2861;DHT22;1438;50.922;6.704;2022-12-18T06:22:28;-5.60;99.90
2861;DHT22;1438;50.922;6.704;2022-12-18T06:24:55;-5.70;99.90
2861;DHT22;1438;50.922;6.704;2022-12-18T06:27:21;-5.60;99.90
2861;DHT22;1438;50.922;6.704;2022-12-18T06:29:46;-5.70;99.90
2861;DHT22;1438;50.922;6.704;2022-12-18T06:32:13;-5.70;99.90
2861;DHT22;1438;50.922;6.704;2022-12-18T06:34:38;-5.60;99.90
2861;DHT22;1438;50.922;6.704;2022-12-18T06:37:04;-5.60;99.90
2861;DHT22;1438;50.922;6.704;2022-12-18T06:39:29;-5.60;99.90
2861;DHT22;1438;50.922;6.704;2022-12-18T06:41:55;-5.60;99.90
2861;DHT22;1438;50.922;6.704;2022-12-18T06:44:21;-5.60;99.90
2861;DHT22;1438;50.922;6.704;2022-12-18T06:46:47;-5.60;99.90
2861;DHT22;1438;50.922;6.704;2022-12-18T06:49:12;-5.70;99.90
2861;DHT22;1438;50.922;6.704;2022-12-18T06:51:38;-5.70;99.90
2861;DHT22;1438;50.922;6.704;2022-12-18T06:54:04;-5.70;99.90
2861;DHT22;1438;50.922;6.704;2022-12-18T06:56:30;-5.70;99.90
2861;DHT22;1438;50.922;6.704;2022-12-18T06:58:55;-5.70;99.90
2861;DHT22;1438;50.922;6.704;2022-12-18T07:01:22;-5.70;99.90
2861;DHT22;1438;50.922;6.704;2022-12-18T07:03:54;-5.70;99.90
2861;DHT22;1438;50.922;6.704;2022-12-18T07:06:22;-5.70;99.90
2861;DHT22;1438;50.922;6.704;2022-12-18T07:08:49;-5.70;99.90
2861;DHT22;1438;50.922;6.704;2022-12-18T07:11:16;-5.70;99.90
2861;DHT22;1438;50.922;6.704;2022-12-18T07:13:42;-5.70;99.90
2861;DHT22;1438;50.922;6.704;2022-12-18T07:16:10;-5.70;99.90
2861;DHT22;1438;50.922;6.704;2022-12-18T07:18:36;-5.70;99.90
2861;DHT22;1438;50.922;6.704;2022-12-18T07:21:07;-5.70;99.90
2861;DHT22;1438;50.922;6.704;2022-12-18T07:23:34;-5.60;99.90
2861;DHT22;1438;50.922;6.704;2022-12-18T07:26:07;-5.60;99.90
2861;DHT22;1438;50.922;6.704;2022-12-18T07:28:34;-5.60;99.90
2861;DHT22;1438;50.922;6.704;2022-12-18T07:31:04;-5.60;99.90
2861;DHT22;1438;50.922;6.704;2022-12-18T07:33:30;-5.60;99.90
2861;DHT22;1438;50.922;6.704;2022-12-18T07:35:55;-5.50;99.90
2861;DHT22;1438;50.922;6.704;2022-12-18T07:38:21;-5.50;99.90
2861;DHT22;1438;50.922;6.704;2022-12-18T07:40:46;-5.50;99.90
2861;DHT22;1438;50.922;6.704;2022-12-18T07:43:12;-5.40;99.90
2861;DHT22;1438;50.922;6.704;2022-12-18T07:45:38;-5.40;99.90
2861;DHT22;1438;50.922;6.704;2022-12-18T07:48:04;-5.30;99.90
2861;DHT22;1438;50.922;6.704;2022-12-18T07:50:29;-5.20;99.90
2861;DHT22;1438;50.922;6.704;2022-12-18T07:52:55;-5.20;99.90
2861;DHT22;1438;50.922;6.704;2022-12-18T07:55:20;-5.10;99.90
2861;DHT22;1438;50.922;6.704;2022-12-18T07:57:46;-5.10;99.90
2861;DHT22;1438;50.922;6.704;2022-12-18T08:00:12;-5.00;99.90
2861;DHT22;1438;50.922;6.704;2022-12-18T08:02:38;-5.00;99.90
2861;DHT22;1438;50.922;6.704;2022-12-18T08:05:03;-5.00;99.90
2861;DHT22;1438;50.922;6.704;2022-12-18T08:07:29;-4.90;99.90
2861;DHT22;1438;50.922;6.704;2022-12-18T08:09:55;-4.90;99.90
2861;DHT22;1438;50.922;6.704;2022-12-18T08:12:20;-4.80;99.90
2861;DHT22;1438;50.922;6.704;2022-12-18T08:14:46;-4.80;99.90
2861;DHT22;1438;50.922;6.704;2022-12-18T08:17:11;-4.70;99.90
2861;DHT22;1438;50.922;6.704;2022-12-18T08:19:37;-4.60;99.90
2861;DHT22;1438;50.922;6.704;2022-12-18T08:22:02;-4.50;99.90
2861;DHT22;1438;50.922;6.704;2022-12-18T08:24:28;-4.50;99.90
2861;DHT22;1438;50.922;6.704;2022-12-18T08:26:53;-4.40;99.90
2861;DHT22;1438;50.922;6.704;2022-12-18T08:29:19;-4.40;99.90
2861;DHT22;1438;50.922;6.704;2022-12-18T08:31:45;-4.30;99.90
2861;DHT22;1438;50.922;6.704;2022-12-18T08:34:10;-4.30;99.90
2861;DHT22;1438;50.922;6.704;2022-12-18T08:36:36;-4.20;99.90
2861;DHT22;1438;50.922;6.704;2022-12-18T08:39:02;-4.10;99.90
2861;DHT22;1438;50.922;6.704;2022-12-18T08:41:27;-4.00;99.90
2861;DHT22;1438;50.922;6.704;2022-12-18T08:43:53;-4.00;99.90
2861;DHT22;1438;50.922;6.704;2022-12-18T08:46:39;-3.90;99.90
2861;DHT22;1438;50.922;6.704;2022-12-18T08:49:06;-3.90;99.90
2861;DHT22;1438;50.922;6.704;2022-12-18T08:51:33;-3.90;99.90
2861;DHT22;1438;50.922;6.704;2022-12-18T08:53:59;-3.80;99.90
2861;DHT22;1438;50.922;6.704;2022-12-18T08:56:24;-3.70;99.90
2861;DHT22;1438;50.922;6.704;2022-12-18T08:58:54;-3.60;99.90
2861;DHT22;1438;50.922;6.704;2022-12-18T09:01:20;-3.60;99.90
2861;DHT22;1438;50.922;6.704;2022-12-18T09:03:46;-3.50;99.90
2861;DHT22;1438;50.922;6.704;2022-12-18T09:06:14;-3.40;99.90
2861;DHT22;1438;50.922;6.704;2022-12-18T09:08:41;-3.40;99.90
2861;DHT22;1438;50.922;6.704;2022-12-18T09:11:13;-3.30;99.90
2861;DHT22;1438;50.922;6.704;2022-12-18T09:13:39;-3.20;99.90
2861;DHT22;1438;50.922;6.704;2022-12-18T09:16:04;-3.20;99.90
2861;DHT22;1438;50.922;6.704;2022-12-18T09:18:30;-3.20;99.90
2861;DHT22;1438;50.922;6.704;2022-12-18T09:20:56;-3.10;99.90
2861;DHT22;1438;50.922;6.704;2022-12-18T09:23:21;-3.00;99.90
2861;DHT22;1438;50.922;6.704;2022-12-18T09:25:47;-3.00;99.90
2861;DHT22;1438;50.922;6.704;2022-12-18T09:28:17;-2.90;99.90
2861;DHT22;1438;50.922;6.704;2022-12-18T09:30:48;-2.80;99.90
2861;DHT22;1438;50.922;6.704;2022-12-18T09:33:15;-2.70;99.90
2861;DHT22;1438;50.922;6.704;2022-12-18T09:35:42;-2.60;99.90
2861;DHT22;1438;50.922;6.704;2022-12-18T09:38:14;-2.50;99.90
2861;DHT22;1438;50.922;6.704;2022-12-18T09:40:43;-2.40;99.90
2861;DHT22;1438;50.922;6.704;2022-12-18T09:43:16;-2.40;99.90
2861;DHT22;1438;50.922;6.704;2022-12-18T09:45:46;-2.40;99.90
2861;DHT22;1438;50.922;6.704;2022-12-18T09:48:21;-2.30;99.90
2861;DHT22;1438;50.922;6.704;2022-12-18T09:50:49;-2.20;99.90
2861;DHT22;1438;50.922;6.704;2022-12-18T09:53:20;-2.20;99.90
2861;DHT22;1438;50.922;6.704;2022-12-18T09:55:48;-2.10;99.90
2861;DHT22;1438;50.922;6.704;2022-12-18T10:00:51;-2.10;99.90
2861;DHT22;1438;50.922;6.704;2022-12-18T10:03:17;-2.00;99.90
2861;DHT22;1438;50.922;6.704;2022-12-18T10:14:40;-1.80;99.90
2861;DHT22;1438;50.922;6.704;2022-12-18T10:17:27;-1.70;99.90
2861;DHT22;1438;50.922;6.704;2022-12-18T10:20:28;-1.50;99.90
2861;DHT22;1438;50.922;6.704;2022-12-18T10:28:12;-1.30;99.90
2861;DHT22;1438;50.922;6.704;2022-12-18T10:30:39;-1.10;99.90
2861;DHT22;1438;50.922;6.704;2022-12-18T10:33:05;-1.00;99.90
2861;DHT22;1438;50.922;6.704;2022-12-18T10:35:31;-1.00;99.90
2861;DHT22;1438;50.922;6.704;2022-12-18T10:43:28;-0.70;99.90
2861;DHT22;1438;50.922;6.704;2022-12-18T10:46:08;-0.70;99.90
2861;DHT22;1438;50.922;6.704;2022-12-18T10:51:27;-0.60;99.90
2861;DHT22;1438;50.922;6.704;2022-12-18T10:54:05;-0.60;99.90
2861;DHT22;1438;50.922;6.704;2022-12-18T10:56:34;-0.50;99.90
2861;DHT22;1438;50.922;6.704;2022-12-18T10:59:06;-0.50;99.90
2861;DHT22;1438;50.922;6.704;2022-12-18T11:01:51;-0.50;99.90
2861;DHT22;1438;50.922;6.704;2022-12-18T11:04:22;-0.50;99.90
2861;DHT22;1438;50.922;6.704;2022-12-18T11:06:55;-0.40;99.90
2861;DHT22;1438;50.922;6.704;2022-12-18T11:09:30;-0.40;99.90
2861;DHT22;1438;50.922;6.704;2022-12-18T11:11:58;-0.40;99.90
2861;DHT22;1438;50.922;6.704;2022-12-18T11:14:32;-0.40;99.90
2861;DHT22;1438;50.922;6.704;2022-12-18T11:17:00;-0.40;99.90
2861;DHT22;1438;50.922;6.704;2022-12-18T11:19:36;-0.30;99.90
2861;DHT22;1438;50.922;6.704;2022-12-18T11:24:49;-0.40;99.90
2861;DHT22;1438;50.922;6.704;2022-12-18T11:27:18;-0.50;99.90
2861;DHT22;1438;50.922;6.704;2022-12-18T11:29:44;-0.50;99.90
2861;DHT22;1438;50.922;6.704;2022-12-18T11:35:04;-0.40;99.90
2861;DHT22;1438;50.922;6.704;2022-12-18T11:37:34;-0.30;99.90
2861;DHT22;1438;50.922;6.704;2022-12-18T11:40:14;-0.40;99.90
2861;DHT22;1438;50.922;6.704;2022-12-18T11:43:25;-0.30;99.90
2861;DHT22;1438;50.922;6.704;2022-12-18T11:45:54;-0.40;99.90
2861;DHT22;1438;50.922;6.704;2022-12-18T11:48:39;-0.50;99.90
2861;DHT22;1438;50.922;6.704;2022-12-18T11:51:14;-0.50;99.90
2861;DHT22;1438;50.922;6.704;2022-12-18T11:53:41;-0.50;99.90
2861;DHT22;1438;50.922;6.704;2022-12-18T11:56:26;-0.50;99.90
2861;DHT22;1438;50.922;6.704;2022-12-18T11:59:24;-0.50;99.90
2861;DHT22;1438;50.922;6.704;2022-12-18T12:01:57;-0.50;99.90
2861;DHT22;1438;50.922;6.704;2022-12-18T12:10:28;-0.50;99.90
2861;DHT22;1438;50.922;6.704;2022-12-18T12:21:39;-0.50;99.90
2861;DHT22;1438;50.922;6.704;2022-12-18T12:38:13;-0.60;99.90
2861;DHT22;1438;50.922;6.704;2022-12-18T12:40:17;-0.60;99.90
2861;DHT22;1438;50.922;6.704;2022-12-18T12:42:47;-0.60;99.90
2861;DHT22;1438;50.922;6.704;2022-12-18T12:45:58;-0.60;99.90
2861;DHT22;1438;50.922;6.704;2022-12-18T12:48:48;-0.60;99.90
2861;DHT22;1438;50.922;6.704;2022-12-18T12:51:26;-0.60;99.90
2861;DHT22;1438;50.922;6.704;2022-12-18T12:53:54;-0.60;99.90
2861;DHT22;1438;50.922;6.704;2022-12-18T12:56:22;-0.60;99.90
2861;DHT22;1438;50.922;6.704;2022-12-18T12:58:54;-0.50;99.90
2861;DHT22;1438;50.922;6.704;2022-12-18T13:03:55;-0.50;99.90
2861;DHT22;1438;50.922;6.704;2022-12-18T13:09:02;-0.50;99.90
2861;DHT22;1438;50.922;6.704;2022-12-18T13:11:34;-0.40;99.90
2861;DHT22;1438;50.922;6.704;2022-12-18T13:14:39;-0.50;99.90
2861;DHT22;1438;50.922;6.704;2022-12-18T13:20:09;-0.50;99.90
2861;DHT22;1438;50.922;6.704;2022-12-18T13:22:38;-0.60;99.90
2861;DHT22;1438;50.922;6.704;2022-12-18T13:25:28;-0.60;99.90
2861;DHT22;1438;50.922;6.704;2022-12-18T13:41:02;-0.60;99.90
2861;DHT22;1438;50.922;6.704;2022-12-18T13:43:41;-0.60;99.90
2861;DHT22;1438;50.922;6.704;2022-12-18T13:51:24;-0.70;99.90
2861;DHT22;1438;50.922;6.704;2022-12-18T13:54:30;-0.70;99.90
2861;DHT22;1438;50.922;6.704;2022-12-18T13:56:48;-0.60;99.90
2861;DHT22;1438;50.922;6.704;2022-12-18T13:59:23;-0.70;99.90
2861;DHT22;1438;50.922;6.704;2022-12-18T14:01:55;-0.70;99.90
2861;DHT22;1438;50.922;6.704;2022-12-18T14:04:27;-0.80;99.90
2861;DHT22;1438;50.922;6.704;2022-12-18T14:09:42;-0.80;99.90
2861;DHT22;1438;50.922;6.704;2022-12-18T14:12:35;-0.80;99.90
2861;DHT22;1438;50.922;6.704;2022-12-18T14:15:29;-0.80;99.90
2861;DHT22;1438;50.922;6.704;2022-12-18T14:21:48;-0.80;99.90
2861;DHT22;1438;50.922;6.704;2022-12-18T14:24:19;-0.80;99.90
2861;DHT22;1438;50.922;6.704;2022-12-18T14:26:46;-0.80;99.90
2861;DHT22;1438;50.922;6.704;2022-12-18T14:29:26;-0.80;99.90
2861;DHT22;1438;50.922;6.704;2022-12-18T14:32:13;-0.80;99.90
2861;DHT22;1438;50.922;6.704;2022-12-18T14:34:45;-0.90;99.90
2861;DHT22;1438;50.922;6.704;2022-12-18T14:37:13;-0.90;99.90
2861;DHT22;1438;50.922;6.704;2022-12-18T17:02:04;-1.30;99.90
2861;DHT22;1438;50.922;6.704;2022-12-18T20:35:31;-0.80;99.90
2861;DHT22;1438;50.922;6.704;2022-12-18T20:38:11;-0.80;99.90
2861;DHT22;1438;50.922;6.704;2022-12-18T20:40:40;-0.80;99.90
2861;DHT22;1438;50.922;6.704;2022-12-18T20:43:05;-0.90;99.90
2861;DHT22;1438;50.922;6.704;2022-12-18T20:45:31;-0.90;99.90
2861;DHT22;1438;50.922;6.704;2022-12-18T20:47:57;-0.90;99.90
2861;DHT22;1438;50.922;6.704;2022-12-18T20:50:26;-0.90;99.90
2861;DHT22;1438;50.922;6.704;2022-12-18T20:52:52;-0.90;99.90
2861;DHT22;1438;50.922;6.704;2022-12-18T20:55:18;-0.80;99.90
2861;DHT22;1438;50.922;6.704;2022-12-18T20:57:44;-0.80;99.90
2861;DHT22;1438;50.922;6.704;2022-12-18T21:00:10;-0.90;99.90
2861;DHT22;1438;50.922;6.704;2022-12-18T21:02:36;-0.80;99.90
2861;DHT22;1438;50.922;6.704;2022-12-18T21:05:01;-0.80;99.90
2861;DHT22;1438;50.922;6.704;2022-12-18T21:07:27;-0.80;99.90
2861;DHT22;1438;50.922;6.704;2022-12-18T21:09:53;-0.80;99.90
2861;DHT22;1438;50.922;6.704;2022-12-18T21:12:19;-0.80;99.90
2861;DHT22;1438;50.922;6.704;2022-12-18T21:15:05;-0.70;99.90
2861;DHT22;1438;50.922;6.704;2022-12-18T21:17:31;-0.70;99.90
2861;DHT22;1438;50.922;6.704;2022-12-18T21:19:57;-0.70;99.90
2861;DHT22;1438;50.922;6.704;2022-12-18T21:22:22;-0.70;99.90
2861;DHT22;1438;50.922;6.704;2022-12-18T21:24:48;-0.70;99.90
2861;DHT22;1438;50.922;6.704;2022-12-18T21:27:14;-0.70;99.90
2861;DHT22;1438;50.922;6.704;2022-12-18T21:29:40;-0.60;99.90
2861;DHT22;1438;50.922;6.704;2022-12-18T21:32:05;-0.60;99.90
2861;DHT22;1438;50.922;6.704;2022-12-18T21:34:34;-0.50;99.90
2861;DHT22;1438;50.922;6.704;2022-12-18T21:37:00;-0.50;99.90
2861;DHT22;1438;50.922;6.704;2022-12-18T21:39:27;-0.40;99.90
2861;DHT22;1438;50.922;6.704;2022-12-18T21:41:54;-0.40;99.90
2861;DHT22;1438;50.922;6.704;2022-12-18T21:44:38;-0.40;99.90
2861;DHT22;1438;50.922;6.704;2022-12-18T21:47:04;-0.40;99.90
2861;DHT22;1438;50.922;6.704;2022-12-18T21:49:31;-0.40;99.90
2861;DHT22;1438;50.922;6.704;2022-12-18T21:51:59;-0.40;99.90
2861;DHT22;1438;50.922;6.704;2022-12-18T21:54:27;-0.40;99.90
2861;DHT22;1438;50.922;6.704;2022-12-18T21:57:13;-0.40;99.90
2861;DHT22;1438;50.922;6.704;2022-12-18T21:59:41;-0.40;99.90
2861;DHT22;1438;50.922;6.704;2022-12-18T22:02:12;-0.30;99.90
2861;DHT22;1438;50.922;6.704;2022-12-18T22:04:38;-0.40;99.90
2861;DHT22;1438;50.922;6.704;2022-12-18T22:07:04;-0.40;99.90
2861;DHT22;1438;50.922;6.704;2022-12-18T22:09:31;-0.40;99.90
2861;DHT22;1438;50.922;6.704;2022-12-18T22:11:57;-0.40;99.90
2861;DHT22;1438;50.922;6.704;2022-12-18T22:14:42;-0.30;99.90
2861;DHT22;1438;50.922;6.704;2022-12-18T22:17:24;-0.30;99.90
2861;DHT22;1438;50.922;6.704;2022-12-18T22:23:59;-0.30;99.90
2861;DHT22;1438;50.922;6.704;2022-12-18T22:33:26;-0.20;99.90
2861;DHT22;1438;50.922;6.704;2022-12-18T22:36:35;-0.10;99.90
2861;DHT22;1438;50.922;6.704;2022-12-18T22:39:15;-0.10;99.90
2861;DHT22;1438;50.922;6.704;2022-12-18T22:41:43;-0.10;99.90
2861;DHT22;1438;50.922;6.704;2022-12-18T22:44:10;-0.10;99.90
2861;DHT22;1438;50.922;6.704;2022-12-18T22:46:41;-0.20;99.90
2861;DHT22;1438;50.922;6.704;2022-12-18T22:49:35;-0.20;99.90
2861;DHT22;1438;50.922;6.704;2022-12-18T22:52:21;-0.20;99.90
2861;DHT22;1438;50.922;6.704;2022-12-18T22:54:58;-0.20;99.90
